createdAt,value
2018-06-14T00:00:58.172Z,1012.96
2018-06-14T00:02:07.367Z,1012.98
2018-06-14T00:03:16.778Z,1013.01
2018-06-14T00:04:25.926Z,1012.99
2018-06-14T00:05:35.608Z,1012.94
2018-06-14T00:06:44.530Z,1012.93
2018-06-14T00:07:53.429Z,1012.98
2018-06-14T00:09:03.141Z,1012.93
2018-06-14T00:10:12.555Z,1012.92
2018-06-14T00:11:22.220Z,1012.92
2018-06-14T00:12:32.157Z,1012.91
2018-06-14T00:13:41.331Z,1012.88
2018-06-14T00:14:50.745Z,1012.88
2018-06-14T00:16:00.418Z,1012.84
2018-06-14T00:17:09.830Z,1012.83
2018-06-14T00:18:19.277Z,1012.85
2018-06-14T00:19:28.729Z,1012.85
2018-06-14T00:20:37.883Z,1012.81
2018-06-14T00:21:47.560Z,1012.82
2018-06-14T00:22:56.474Z,1012.8
2018-06-14T00:24:05.629Z,1012.82
2018-06-14T00:25:14.792Z,1012.87
2018-06-14T00:26:24.189Z,1012.86
2018-06-14T00:27:33.615Z,1012.84
2018-06-14T00:28:43.041Z,1012.81
2018-06-14T00:29:52.202Z,1012.8
2018-06-14T00:31:01.370Z,1012.77
2018-06-14T00:32:10.266Z,1012.79
2018-06-14T00:33:19.679Z,1012.8
2018-06-14T00:34:28.590Z,1012.84
2018-06-14T00:35:37.757Z,1012.79
2018-06-14T00:36:47.184Z,1012.81
2018-06-14T00:37:56.601Z,1012.78
2018-06-14T00:39:06.011Z,1012.8
2018-06-14T00:40:15.680Z,1012.8
2018-06-14T00:41:25.351Z,1012.79
2018-06-14T00:42:34.522Z,1012.79
2018-06-14T00:43:44.206Z,1012.75
2018-06-14T00:44:53.611Z,1012.74
2018-06-14T00:46:03.276Z,1012.76
2018-06-14T00:47:12.702Z,1012.75
2018-06-14T00:48:22.146Z,1012.77
2018-06-14T00:49:31.579Z,1012.78
2018-06-14T00:50:41.253Z,1012.78
2018-06-14T00:51:50.671Z,1012.76
2018-06-14T00:52:59.822Z,1012.74
2018-06-14T00:54:09.496Z,1012.77
2018-06-14T00:55:19.183Z,1012.77
2018-06-14T00:56:28.335Z,1012.77
2018-06-14T00:57:37.731Z,1012.77
2018-06-14T00:58:46.889Z,1012.77
2018-06-14T00:59:56.815Z,1012.79
2018-06-14T01:01:05.712Z,1012.78
2018-06-14T01:02:15.185Z,1012.76
2018-06-14T01:03:24.613Z,1012.81
2018-06-14T01:04:34.019Z,1012.77
2018-06-14T01:05:43.703Z,1012.77
2018-06-14T01:06:52.851Z,1012.75
2018-06-14T01:08:02.039Z,1012.77
2018-06-14T01:09:11.193Z,1012.75
2018-06-14T01:10:20.875Z,1012.77
2018-06-14T01:11:30.033Z,1012.76
2018-06-14T01:12:39.453Z,1012.8
2018-06-14T01:13:48.879Z,1012.75
2018-06-14T01:14:58.045Z,1012.78
2018-06-14T01:16:07.482Z,1012.81
2018-06-14T01:17:16.647Z,1012.78
2018-06-14T01:18:26.572Z,1012.79
2018-06-14T01:19:36.495Z,1012.77
2018-06-14T01:20:45.907Z,1012.77
2018-06-14T01:21:55.317Z,1012.77
2018-06-14T01:23:04.771Z,1012.77
2018-06-14T01:24:13.955Z,1012.76
2018-06-14T01:25:23.119Z,1012.76
2018-06-14T01:26:32.278Z,1012.72
2018-06-14T01:27:41.447Z,1012.77
2018-06-14T01:28:50.605Z,1012.73
2018-06-14T01:29:59.775Z,1012.76
2018-06-14T01:31:08.936Z,1012.72
2018-06-14T01:32:18.879Z,1012.7
2018-06-14T01:33:28.309Z,1012.68
2018-06-14T01:34:37.771Z,1012.7
2018-06-14T01:35:47.438Z,1012.7
2018-06-14T01:36:56.850Z,1012.71
2018-06-14T01:38:06.024Z,1012.7
2018-06-14T01:39:15.455Z,1012.69
2018-06-14T01:40:24.463Z,1012.7
2018-06-14T01:41:33.660Z,1012.7
2018-06-14T01:42:43.769Z,1012.67
2018-06-14T01:43:53.194Z,1012.7
2018-06-14T01:45:02.893Z,1012.66
2018-06-14T01:46:12.580Z,1012.69
2018-06-14T01:47:21.752Z,1012.68
2018-06-14T01:48:31.156Z,1012.65
2018-06-14T01:49:40.314Z,1012.69
2018-06-14T01:50:49.743Z,1012.7
2018-06-14T01:51:59.414Z,1012.72
2018-06-14T01:53:08.567Z,1012.7
2018-06-14T01:54:18.502Z,1012.7
2018-06-14T01:55:27.922Z,1012.68
2018-06-14T01:56:37.158Z,1012.69
2018-06-14T01:57:46.322Z,1012.68
2018-06-14T01:58:55.732Z,1012.68
2018-06-14T02:00:05.247Z,1012.67
2018-06-14T02:01:14.909Z,1012.71
2018-06-14T02:02:24.062Z,1012.67
2018-06-14T02:03:33.741Z,1012.69
2018-06-14T02:04:43.165Z,1012.69
2018-06-14T02:05:51.876Z,1012.7
2018-06-14T02:07:01.560Z,1012.71
2018-06-14T02:08:10.710Z,1012.74
2018-06-14T02:09:19.882Z,1012.69
2018-06-14T02:10:29.051Z,1012.7
2018-06-14T02:11:38.459Z,1012.71
2018-06-14T02:12:47.629Z,1012.71
2018-06-14T02:13:56.796Z,1012.68
2018-06-14T02:15:05.976Z,1012.68
2018-06-14T02:16:15.423Z,1012.67
2018-06-14T02:17:24.878Z,1012.68
2018-06-14T02:18:34.564Z,1012.64
2018-06-14T02:19:43.734Z,1012.65
2018-06-14T02:20:52.646Z,1012.68
2018-06-14T02:22:01.542Z,1012.68
2018-06-14T02:23:10.781Z,1012.65
2018-06-14T02:24:19.958Z,1012.66
2018-06-14T02:25:29.188Z,1012.62
2018-06-14T02:26:38.606Z,1012.61
2018-06-14T02:27:48.057Z,1012.64
2018-06-14T02:28:56.980Z,1012.63
2018-06-14T02:30:06.659Z,1012.65
2018-06-14T02:31:15.855Z,1012.65
2018-06-14T02:32:25.032Z,1012.66
2018-06-14T02:33:34.700Z,1012.66
2018-06-14T02:34:44.107Z,1012.67
2018-06-14T02:35:53.266Z,1012.68
2018-06-14T02:37:02.941Z,1012.67
2018-06-14T02:38:12.882Z,1012.64
2018-06-14T02:39:22.832Z,1012.67
2018-06-14T02:40:31.986Z,1012.66
2018-06-14T02:41:41.445Z,1012.63
2018-06-14T02:42:51.123Z,1012.63
2018-06-14T02:44:00.807Z,1012.61
2018-06-14T02:45:10.223Z,1012.61
2018-06-14T02:46:19.385Z,1012.67
2018-06-14T02:47:28.838Z,1012.67
2018-06-14T02:48:38.794Z,1012.64
2018-06-14T02:49:47.959Z,1012.65
2018-06-14T02:50:57.647Z,1012.65
2018-06-14T02:52:06.805Z,1012.61
2018-06-14T02:53:16.221Z,1012.62
2018-06-14T02:54:26.162Z,1012.61
2018-06-14T02:55:35.069Z,1012.61
2018-06-14T02:56:44.746Z,1012.61
2018-06-14T02:57:54.179Z,1012.59
2018-06-14T02:59:03.363Z,1012.56
2018-06-14T03:00:12.277Z,1012.59
2018-06-14T03:01:21.949Z,1012.57
2018-06-14T03:02:30.851Z,1012.6
2018-06-14T03:03:40.293Z,1012.61
2018-06-14T03:04:49.722Z,1012.61
2018-06-14T03:05:59.156Z,1012.58
2018-06-14T03:07:08.305Z,1012.59
2018-06-14T03:08:17.977Z,1012.57
2018-06-14T03:09:27.454Z,1012.53
2018-06-14T03:10:37.394Z,1012.56
2018-06-14T03:11:47.085Z,1012.55
2018-06-14T03:12:56.244Z,1012.52
2018-06-14T03:14:05.137Z,1012.54
2018-06-14T03:15:14.569Z,1012.52
2018-06-14T03:16:24.064Z,1012.51
2018-06-14T03:17:33.738Z,1012.52
2018-06-14T03:18:43.152Z,1012.49
2018-06-14T03:19:52.584Z,1012.48
2018-06-14T03:21:01.748Z,1012.49
2018-06-14T03:22:11.176Z,1012.47
2018-06-14T03:23:20.407Z,1012.49
2018-06-14T03:24:30.129Z,1012.42
2018-06-14T03:25:39.539Z,1012.43
2018-06-14T03:26:48.433Z,1012.44
2018-06-14T03:27:57.834Z,1012.43
2018-06-14T03:29:07.264Z,1012.44
2018-06-14T03:30:16.669Z,1012.4
2018-06-14T03:31:26.357Z,1012.37
2018-06-14T03:32:35.774Z,1012.4
2018-06-14T03:33:45.465Z,1012.44
2018-06-14T03:34:54.881Z,1012.42
2018-06-14T03:36:04.549Z,1012.39
2018-06-14T03:37:13.987Z,1012.35
2018-06-14T03:38:23.676Z,1012.37
2018-06-14T03:39:33.099Z,1012.33
2018-06-14T03:40:42.565Z,1012.32
2018-06-14T03:41:52.410Z,1012.31
2018-06-14T03:43:01.562Z,1012.33
2018-06-14T03:44:10.970Z,1012.36
2018-06-14T03:45:20.883Z,1012.35
2018-06-14T03:46:29.875Z,1012.34
2018-06-14T03:47:39.352Z,1012.36
2018-06-14T03:48:48.250Z,1012.39
2018-06-14T03:49:57.672Z,1012.34
2018-06-14T03:51:06.845Z,1012.34
2018-06-14T03:52:16.241Z,1012.32
2018-06-14T03:53:25.671Z,1012.34
2018-06-14T03:54:35.613Z,1012.32
2018-06-14T03:55:44.765Z,1012.29
2018-06-14T03:56:54.428Z,1012.28
2018-06-14T03:58:04.105Z,1012.32
2018-06-14T03:59:12.992Z,1012.31
2018-06-14T04:00:22.401Z,1012.3
2018-06-14T04:01:32.078Z,1012.37
2018-06-14T04:02:40.969Z,1012.37
2018-06-14T04:03:50.409Z,1012.42
2018-06-14T04:04:59.972Z,1012.39
2018-06-14T04:06:09.643Z,1012.38
2018-06-14T04:07:18.618Z,1012.37
2018-06-14T04:08:28.082Z,1012.35
2018-06-14T04:09:37.763Z,1012.37
2018-06-14T04:10:46.941Z,1012.37
2018-06-14T04:11:56.604Z,1012.36
2018-06-14T04:13:06.022Z,1012.38
2018-06-14T04:14:15.451Z,1012.33
2018-06-14T04:15:24.905Z,1012.34
2018-06-14T04:16:34.576Z,1012.32
2018-06-14T04:17:43.737Z,1012.35
2018-06-14T04:18:52.913Z,1012.35
2018-06-14T04:20:02.589Z,1012.36
2018-06-14T04:21:12.009Z,1012.35
2018-06-14T04:22:21.682Z,1012.33
2018-06-14T04:23:31.101Z,1012.32
2018-06-14T04:24:40.280Z,1012.31
2018-06-14T04:25:49.439Z,1012.35
2018-06-14T04:26:59.116Z,1012.39
2018-06-14T04:28:08.017Z,1012.39
2018-06-14T04:29:17.708Z,1012.37
2018-06-14T04:30:27.395Z,1012.4
2018-06-14T04:31:37.312Z,1012.39
2018-06-14T04:32:46.975Z,1012.36
2018-06-14T04:33:56.456Z,1012.38
2018-06-14T04:35:06.401Z,1012.37
2018-06-14T04:36:15.558Z,1012.37
2018-06-14T04:37:25.229Z,1012.36
2018-06-14T04:38:34.648Z,1012.39
2018-06-14T04:39:44.068Z,1012.35
2018-06-14T04:40:53.478Z,1012.34
2018-06-14T04:42:02.631Z,1012.33
2018-06-14T04:43:11.841Z,1012.34
2018-06-14T04:44:21.509Z,1012.34
2018-06-14T04:45:30.412Z,1012.34
2018-06-14T04:46:40.070Z,1012.3
2018-06-14T04:47:49.773Z,1012.35
2018-06-14T04:48:58.961Z,1012.32
2018-06-14T04:50:08.377Z,1012.28
2018-06-14T04:51:18.055Z,1012.28
2018-06-14T04:52:27.208Z,1012.31
2018-06-14T04:53:36.706Z,1012.29
2018-06-14T04:54:46.066Z,1012.3
2018-06-14T04:55:55.486Z,1012.25
2018-06-14T04:57:04.656Z,1012.28
2018-06-14T04:58:14.088Z,1012.28
2018-06-14T04:59:23.541Z,1012.33
2018-06-14T05:00:32.953Z,1012.29
2018-06-14T05:01:41.855Z,1012.3
2018-06-14T05:02:51.317Z,1012.26
2018-06-14T05:04:01.001Z,1012.27
2018-06-14T05:05:10.702Z,1012.23
2018-06-14T05:06:20.128Z,1012.24
2018-06-14T05:07:29.550Z,1012.23
2018-06-14T05:08:38.721Z,1012.23
2018-06-14T05:09:48.384Z,1012.22
2018-06-14T05:10:58.055Z,1012.26
2018-06-14T05:12:07.465Z,1012.22
2018-06-14T05:13:17.166Z,1012.26
2018-06-14T05:14:26.837Z,1012.26
2018-06-14T05:15:35.990Z,1012.24
2018-06-14T05:16:45.923Z,1012.22
2018-06-14T05:17:55.357Z,1012.22
2018-06-14T05:19:04.531Z,1012.23
2018-06-14T05:20:14.200Z,1012.22
2018-06-14T05:21:24.138Z,1012.24
2018-06-14T05:22:33.855Z,1012.26
2018-06-14T05:23:43.053Z,1012.24
2018-06-14T05:24:52.211Z,1012.24
2018-06-14T05:26:00.919Z,1012.32
2018-06-14T05:27:10.083Z,1012.25
2018-06-14T05:28:19.508Z,1012.23
2018-06-14T05:29:28.930Z,1012.24
2018-06-14T05:30:38.843Z,1012.25
2018-06-14T05:31:48.011Z,1012.27
2018-06-14T05:32:57.695Z,1012.24
2018-06-14T05:34:06.899Z,1012.18
2018-06-14T05:35:16.062Z,1012.18
2018-06-14T05:36:25.497Z,1012.2
2018-06-14T05:37:35.176Z,1012.2
2018-06-14T05:38:43.830Z,1012.21
2018-06-14T05:39:52.753Z,1012.22
2018-06-14T05:41:02.243Z,1012.2
2018-06-14T05:42:11.996Z,1012.23
2018-06-14T05:43:21.977Z,1012.21
2018-06-14T05:44:31.504Z,1012.2
2018-06-14T05:45:41.642Z,1012.21
2018-06-14T05:46:50.571Z,1012.17
2018-06-14T05:47:59.740Z,1012.12
2018-06-14T05:49:09.157Z,1012.14
2018-06-14T05:50:19.158Z,1012.14
2018-06-14T05:51:28.322Z,1012.19
2018-06-14T05:52:37.485Z,1012.18
2018-06-14T05:53:47.154Z,1012.17
2018-06-14T05:54:56.577Z,1012.17
2018-06-14T05:56:05.503Z,1012.2
2018-06-14T05:57:14.464Z,1012.21
2018-06-14T05:58:23.608Z,1012.18
2018-06-14T05:59:33.289Z,1012.16
2018-06-14T06:00:42.718Z,1012.21
2018-06-14T06:01:51.628Z,1012.2
2018-06-14T06:03:01.045Z,1012.16
2018-06-14T06:04:10.457Z,1012.18
2018-06-14T06:05:19.896Z,1012.15
2018-06-14T06:06:29.815Z,1012.14
2018-06-14T06:07:38.988Z,1012.14
2018-06-14T06:08:48.153Z,1012.17
2018-06-14T06:09:57.852Z,1012.13
2018-06-14T06:11:07.009Z,1012.16
2018-06-14T06:12:16.437Z,1012.14
2018-06-14T06:13:25.383Z,1012.16
2018-06-14T06:14:34.302Z,1012.19
2018-06-14T06:15:43.724Z,1012.16
2018-06-14T06:16:53.394Z,1012.18
2018-06-14T06:18:03.337Z,1012.14
2018-06-14T06:19:13.062Z,1012.15
2018-06-14T06:20:22.223Z,1012.11
2018-06-14T06:21:31.668Z,1012.08
2018-06-14T06:22:41.098Z,1012.08
2018-06-14T06:23:50.253Z,1012.09
2018-06-14T06:24:59.940Z,1012.03
2018-06-14T06:26:09.626Z,1012.03
2018-06-14T06:27:19.325Z,1012.05
2018-06-14T06:28:29.013Z,1012
2018-06-14T06:29:38.693Z,1011.98
2018-06-14T06:30:48.399Z,1011.96
2018-06-14T06:31:58.358Z,1011.91
2018-06-14T06:33:07.830Z,1011.95
2018-06-14T06:34:17.892Z,1011.96
2018-06-14T06:35:27.058Z,1011.93
2018-06-14T06:36:36.499Z,1011.95
2018-06-14T06:37:46.182Z,1011.91
2018-06-14T06:38:55.702Z,1011.98
2018-06-14T06:40:05.119Z,1011.94
2018-06-14T06:41:14.554Z,1011.86
2018-06-14T06:42:23.998Z,1011.87
2018-06-14T06:43:33.439Z,1011.93
2018-06-14T06:44:42.888Z,1011.92
2018-06-14T06:45:52.837Z,1011.93
2018-06-14T06:47:01.994Z,1011.94
2018-06-14T06:48:10.950Z,1011.91
2018-06-14T06:49:20.125Z,1011.94
2018-06-14T06:50:29.542Z,1011.96
2018-06-14T06:51:38.713Z,1011.95
2018-06-14T06:52:48.400Z,1011.95
2018-06-14T06:53:57.630Z,1011.95
2018-06-14T06:55:07.067Z,1011.94
2018-06-14T06:56:16.660Z,1011.96
2018-06-14T06:57:26.321Z,1011.95
2018-06-14T06:58:35.835Z,1011.93
2018-06-14T06:59:45.424Z,1011.94
2018-06-14T07:00:54.864Z,1011.94
2018-06-14T07:02:04.322Z,1011.95
2018-06-14T07:03:13.766Z,1011.95
2018-06-14T07:04:23.215Z,1011.9
2018-06-14T07:05:32.129Z,1011.94
2018-06-14T07:06:41.805Z,1011.88
2018-06-14T07:07:51.245Z,1011.93
2018-06-14T07:09:00.666Z,1011.92
2018-06-14T07:10:09.858Z,1011.9
2018-06-14T07:11:19.594Z,1011.93
2018-06-14T07:12:29.193Z,1011.91
2018-06-14T07:13:38.625Z,1011.93
2018-06-14T07:14:47.794Z,1011.85
2018-06-14T07:15:57.208Z,1011.82
2018-06-14T07:17:06.668Z,1011.83
2018-06-14T07:18:16.088Z,1011.83
2018-06-14T07:19:24.992Z,1011.82
2018-06-14T07:20:34.410Z,1011.78
2018-06-14T07:21:43.632Z,1011.8
2018-06-14T07:22:53.079Z,1011.77
2018-06-14T07:24:02.503Z,1011.79
2018-06-14T07:25:11.941Z,1011.75
2018-06-14T07:26:21.873Z,1011.74
2018-06-14T07:27:31.299Z,1011.77
2018-06-14T07:28:41.100Z,1011.77
2018-06-14T07:29:50.529Z,1011.75
2018-06-14T07:31:00.242Z,1011.79
2018-06-14T07:32:09.403Z,1011.78
2018-06-14T07:33:18.828Z,1011.76
2018-06-14T07:34:28.011Z,1011.78
2018-06-14T07:35:37.711Z,1011.74
2018-06-14T07:36:46.863Z,1011.75
2018-06-14T07:37:56.399Z,1011.73
2018-06-14T07:39:05.828Z,1011.76
2018-06-14T07:40:15.001Z,1011.73
2018-06-14T07:41:24.578Z,1011.74
2018-06-14T07:42:34.413Z,1011.71
2018-06-14T07:43:44.096Z,1011.72
2018-06-14T07:44:53.312Z,1011.69
2018-06-14T07:46:02.763Z,1011.72
2018-06-14T07:47:12.187Z,1011.71
2018-06-14T07:48:22.112Z,1011.69
2018-06-14T07:49:31.013Z,1011.71
2018-06-14T07:50:40.179Z,1011.7
2018-06-14T07:51:49.606Z,1011.71
2018-06-14T07:52:59.019Z,1011.68
2018-06-14T07:54:08.469Z,1011.71
2018-06-14T07:55:18.151Z,1011.73
2018-06-14T07:56:27.604Z,1011.66
2018-06-14T07:57:36.778Z,1011.69
2018-06-14T07:58:46.214Z,1011.72
2018-06-14T07:59:55.903Z,1011.69
2018-06-14T08:01:05.900Z,1011.67
2018-06-14T08:02:15.082Z,1011.67
2018-06-14T08:03:24.559Z,1011.62
2018-06-14T08:04:34.536Z,1011.63
2018-06-14T08:05:43.972Z,1011.63
2018-06-14T08:06:53.406Z,1011.56
2018-06-14T08:08:02.829Z,1011.57
2018-06-14T08:09:12.262Z,1011.59
2018-06-14T08:10:21.686Z,1011.56
2018-06-14T08:11:31.372Z,1011.55
2018-06-14T08:12:40.802Z,1011.49
2018-06-14T08:13:50.671Z,1011.49
2018-06-14T08:15:00.111Z,1011.47
2018-06-14T08:16:09.025Z,1011.47
2018-06-14T08:17:18.453Z,1011.51
2018-06-14T08:18:27.881Z,1011.53
2018-06-14T08:19:37.342Z,1011.5
2018-06-14T08:20:46.768Z,1011.54
2018-06-14T08:21:55.953Z,1011.54
2018-06-14T08:23:05.133Z,1011.53
2018-06-14T08:24:14.077Z,1011.5
2018-06-14T08:25:23.831Z,1011.51
2018-06-14T08:26:33.037Z,1011.47
2018-06-14T08:27:41.967Z,1011.5
2018-06-14T08:28:51.167Z,1011.47
2018-06-14T08:30:00.337Z,1011.43
2018-06-14T08:31:09.767Z,1011.46
2018-06-14T08:32:18.692Z,1011.46
2018-06-14T08:33:27.862Z,1011.5
2018-06-14T08:34:37.319Z,1011.48
2018-06-14T08:35:47.273Z,1011.53
2018-06-14T08:36:56.965Z,1011.49
2018-06-14T08:38:06.390Z,1011.54
2018-06-14T08:39:15.617Z,1011.51
2018-06-14T08:40:25.043Z,1011.51
2018-06-14T08:41:34.728Z,1011.5
2018-06-14T08:42:44.153Z,1011.48
2018-06-14T08:43:53.062Z,1011.48
2018-06-14T08:45:02.482Z,1011.5
2018-06-14T08:46:12.166Z,1011.45
2018-06-14T08:47:21.848Z,1011.5
2018-06-14T08:48:31.017Z,1011.5
2018-06-14T08:49:40.456Z,1011.5
2018-06-14T08:50:49.657Z,1011.44
2018-06-14T08:51:59.095Z,1011.48
2018-06-14T08:53:08.264Z,1011.45
2018-06-14T08:54:17.426Z,1011.46
2018-06-14T08:55:26.641Z,1011.43
2018-06-14T08:56:36.080Z,1011.41
2018-06-14T08:57:45.332Z,1011.38
2018-06-14T08:58:54.503Z,1011.4
2018-06-14T09:00:03.966Z,1011.41
2018-06-14T09:01:13.457Z,1011.39
2018-06-14T09:02:23.228Z,1011.37
2018-06-14T09:03:32.739Z,1011.3
2018-06-14T09:04:41.925Z,1011.31
2018-06-14T09:05:51.452Z,1011.28
2018-06-14T09:07:01.143Z,1011.26
2018-06-14T09:08:10.369Z,1011.29
2018-06-14T09:09:19.867Z,1011.21
2018-06-14T09:10:29.360Z,1011.15
2018-06-14T09:11:39.096Z,1011.18
2018-06-14T09:12:48.771Z,1011.16
2018-06-14T09:13:58.712Z,1011.17
2018-06-14T09:15:09.144Z,1011.15
2018-06-14T09:16:18.864Z,1011.17
2018-06-14T09:17:28.018Z,1011.15
2018-06-14T09:18:37.705Z,1011.14
2018-06-14T09:19:47.401Z,1011.14
2018-06-14T09:20:57.094Z,1011.24
2018-06-14T09:22:06.560Z,1011.19
2018-06-14T09:23:15.743Z,1011.16
2018-06-14T09:24:25.421Z,1011.18
2018-06-14T09:25:35.091Z,1011.15
2018-06-14T09:26:44.528Z,1011.2
2018-06-14T09:27:53.950Z,1011.15
2018-06-14T09:29:03.902Z,1011.13
2018-06-14T09:30:13.616Z,1011.17
2018-06-14T09:31:23.297Z,1011.2
2018-06-14T09:32:32.998Z,1011.2
2018-06-14T09:33:42.416Z,1011.16
2018-06-14T09:34:51.602Z,1011.15
2018-06-14T09:36:01.020Z,1011.12
2018-06-14T09:37:10.441Z,1011.12
2018-06-14T09:38:19.406Z,1011.17
2018-06-14T09:39:29.082Z,1011.09
2018-06-14T09:40:37.981Z,1011.1
2018-06-14T09:41:47.674Z,1011.08
2018-06-14T09:42:57.476Z,1011.13
2018-06-14T09:44:07.584Z,1011.17
2018-06-14T09:45:17.026Z,1011.17
2018-06-14T09:46:25.673Z,1011.18
2018-06-14T09:47:35.347Z,1011.17
2018-06-14T09:48:44.543Z,1011.15
2018-06-14T09:49:53.959Z,1011.09
2018-06-14T09:51:03.380Z,1011.12
2018-06-14T09:52:12.807Z,1011.06
2018-06-14T09:53:22.240Z,1011.14
2018-06-14T09:54:32.179Z,1011.15
2018-06-14T09:55:41.381Z,1011.12
2018-06-14T09:56:51.075Z,1011.15
2018-06-14T09:58:00.760Z,1011.07
2018-06-14T09:59:09.672Z,1011.05
2018-06-14T10:00:19.396Z,1011.06
2018-06-14T10:01:28.697Z,1011.04
2018-06-14T10:02:38.160Z,1011.07
2018-06-14T10:03:47.324Z,1011.08
2018-06-14T10:04:56.735Z,1011.09
2018-06-14T10:06:06.217Z,1011.08
2018-06-14T10:07:16.509Z,1011.07
2018-06-14T10:08:25.424Z,1011.01
2018-06-14T10:09:35.093Z,1011.03
2018-06-14T10:10:44.793Z,1011.01
2018-06-14T10:11:54.205Z,1011.07
2018-06-14T10:13:03.901Z,1011.04
2018-06-14T10:14:13.332Z,1011.03
2018-06-14T10:15:23.016Z,1011.07
2018-06-14T10:16:32.444Z,1011.06
2018-06-14T10:17:42.383Z,1011.1
2018-06-14T10:18:51.547Z,1011.09
2018-06-14T10:20:00.730Z,1011.11
2018-06-14T10:21:10.426Z,1011.08
2018-06-14T10:22:19.095Z,1011.07
2018-06-14T10:23:28.806Z,1011.03
2018-06-14T10:24:38.233Z,1011.1
2018-06-14T10:25:47.662Z,1011.06
2018-06-14T10:26:56.598Z,1011.09
2018-06-14T10:28:05.767Z,1011.09
2018-06-14T10:29:15.067Z,1011.03
2018-06-14T10:30:24.915Z,1011.07
2018-06-14T10:31:34.598Z,1011.11
2018-06-14T10:32:43.770Z,1011.09
2018-06-14T10:33:53.294Z,1011.07
2018-06-14T10:35:02.217Z,1011.04
2018-06-14T10:36:10.882Z,1011.02
2018-06-14T10:37:20.363Z,1011.01
2018-06-14T10:38:30.291Z,1010.95
2018-06-14T10:39:39.783Z,1011.05
2018-06-14T10:40:49.492Z,1011.08
2018-06-14T10:41:58.683Z,1011.13
2018-06-14T10:43:08.388Z,1011.09
2018-06-14T10:44:17.598Z,1011.11
2018-06-14T10:45:27.289Z,1011.12
2018-06-14T10:46:36.983Z,1011.11
2018-06-14T10:47:46.409Z,1011.13
2018-06-14T10:48:56.095Z,1011.11
2018-06-14T10:50:05.262Z,1011.05
2018-06-14T10:51:14.465Z,1011.03
2018-06-14T10:52:23.946Z,1011.06
2018-06-14T10:53:33.830Z,1011.02
2018-06-14T10:54:43.001Z,1011.03
2018-06-14T10:55:52.691Z,1011
2018-06-14T10:57:01.847Z,1011.04
2018-06-14T10:58:11.055Z,1011.04
2018-06-14T10:59:20.490Z,1011.05
2018-06-14T11:00:29.910Z,1010.98
2018-06-14T11:01:39.902Z,1010.96
2018-06-14T11:02:49.339Z,1010.93
2018-06-14T11:03:58.777Z,1010.94
2018-06-14T11:05:08.195Z,1010.9
2018-06-14T11:06:17.127Z,1010.84
2018-06-14T11:07:26.297Z,1010.86
2018-06-14T11:08:35.715Z,1010.86
2018-06-14T11:09:45.149Z,1010.89
2018-06-14T11:10:54.626Z,1010.88
2018-06-14T11:12:04.063Z,1010.87
2018-06-14T11:13:13.514Z,1010.86
2018-06-14T11:14:23.342Z,1010.86
2018-06-14T11:15:32.839Z,1010.83
2018-06-14T11:16:42.536Z,1010.8
2018-06-14T11:17:52.012Z,1010.8
2018-06-14T11:19:01.440Z,1010.74
2018-06-14T11:20:10.647Z,1010.78
2018-06-14T11:21:20.736Z,1010.71
2018-06-14T11:22:30.166Z,1010.67
2018-06-14T11:23:39.330Z,1010.69
2018-06-14T11:24:48.747Z,1010.73
2018-06-14T11:25:57.926Z,1010.64
2018-06-14T11:27:07.623Z,1010.63
2018-06-14T11:28:16.531Z,1010.64
2018-06-14T11:29:26.212Z,1010.6
2018-06-14T11:30:35.639Z,1010.6
2018-06-14T11:31:45.078Z,1010.62
2018-06-14T11:32:54.240Z,1010.6
2018-06-14T11:34:03.420Z,1010.56
2018-06-14T11:35:13.411Z,1010.58
2018-06-14T11:36:23.361Z,1010.55
2018-06-14T11:37:33.052Z,1010.58
2018-06-14T11:38:42.746Z,1010.59
2018-06-14T11:39:52.424Z,1010.51
2018-06-14T11:41:01.583Z,1010.53
2018-06-14T11:42:11.017Z,1010.54
2018-06-14T11:43:20.438Z,1010.49
2018-06-14T11:44:29.868Z,1010.49
2018-06-14T11:45:39.293Z,1010.54
2018-06-14T11:46:48.806Z,1010.5
2018-06-14T11:47:57.965Z,1010.48
2018-06-14T11:49:07.661Z,1010.47
2018-06-14T11:50:17.372Z,1010.44
2018-06-14T11:51:27.098Z,1010.49
2018-06-14T11:52:37.054Z,1010.46
2018-06-14T11:53:46.755Z,1010.5
2018-06-14T11:54:55.927Z,1010.45
2018-06-14T11:56:05.640Z,1010.49
2018-06-14T11:57:14.539Z,1010.42
2018-06-14T11:58:23.721Z,1010.45
2018-06-14T11:59:33.462Z,1010.42
2018-06-14T12:00:43.598Z,1010.39
2018-06-14T12:01:53.287Z,1010.37
2018-06-14T12:03:02.994Z,1010.37
2018-06-14T12:04:12.172Z,1010.36
2018-06-14T12:05:21.862Z,1010.34
2018-06-14T12:06:31.025Z,1010.32
2018-06-14T12:07:40.205Z,1010.34
2018-06-14T12:08:49.130Z,1010.29
2018-06-14T12:09:58.564Z,1010.29
2018-06-14T12:11:08.269Z,1010.21
2018-06-14T12:12:17.461Z,1010.29
2018-06-14T12:13:27.186Z,1010.26
2018-06-14T12:14:36.368Z,1010.29
2018-06-14T12:15:45.542Z,1010.3
2018-06-14T12:16:55.242Z,1010.29
2018-06-14T12:18:04.451Z,1010.2
2018-06-14T12:19:13.617Z,1010.25
2018-06-14T12:20:23.482Z,1010.15
2018-06-14T12:21:32.928Z,1010.18
2018-06-14T12:22:42.106Z,1010.19
2018-06-14T12:23:51.533Z,1010.14
2018-06-14T12:25:01.213Z,1010.21
2018-06-14T12:26:10.641Z,1010.22
2018-06-14T12:27:20.608Z,1010.19
2018-06-14T12:28:30.033Z,1010.19
2018-06-14T12:29:39.207Z,1010.15
2018-06-14T12:30:48.144Z,1010.12
2018-06-14T12:31:57.834Z,1010.12
2018-06-14T12:33:07.818Z,1010.07
2018-06-14T12:34:16.979Z,1010.03
2018-06-14T12:35:26.400Z,1010.1
2018-06-14T12:36:36.083Z,1010.07
2018-06-14T12:37:45.605Z,1010.08
2018-06-14T12:38:55.331Z,1010.07
2018-06-14T12:40:04.825Z,1010.06
2018-06-14T12:41:14.516Z,1010.1
2018-06-14T12:42:23.678Z,1010.09
2018-06-14T12:43:33.163Z,1010.1
2018-06-14T12:44:42.842Z,1010.02
2018-06-14T12:45:52.531Z,1010.06
2018-06-14T12:47:01.963Z,1010.01
2018-06-14T12:48:11.123Z,1009.99
2018-06-14T12:49:20.314Z,1009.94
2018-06-14T12:50:29.747Z,1009.94
2018-06-14T12:51:39.696Z,1009.95
2018-06-14T12:52:48.609Z,1009.91
2018-06-14T12:53:57.527Z,1009.91
2018-06-14T12:55:06.953Z,1009.9
2018-06-14T12:56:16.376Z,1009.86
2018-06-14T12:57:25.547Z,1009.87
2018-06-14T12:58:35.333Z,1009.84
2018-06-14T12:59:45.304Z,1009.85
2018-06-14T13:00:54.798Z,1009.83
2018-06-14T13:02:04.467Z,1009.91
2018-06-14T13:03:13.894Z,1009.89
2018-06-14T13:04:23.323Z,1009.85
2018-06-14T13:05:33.293Z,1009.88
2018-06-14T13:06:42.992Z,1009.85
2018-06-14T13:07:52.925Z,1009.83
2018-06-14T13:09:01.852Z,1009.83
2018-06-14T13:10:10.770Z,1009.84
2018-06-14T13:11:20.187Z,1009.83
2018-06-14T13:12:29.619Z,1009.75
2018-06-14T13:13:38.797Z,1009.76
2018-06-14T13:14:47.720Z,1009.78
2018-06-14T13:15:57.395Z,1009.82
2018-06-14T13:17:06.568Z,1009.8
2018-06-14T13:18:16.023Z,1009.73
2018-06-14T13:19:25.451Z,1009.7
2018-06-14T13:20:34.879Z,1009.78
2018-06-14T13:21:44.048Z,1009.73
2018-06-14T13:22:53.742Z,1009.75
2018-06-14T13:24:03.695Z,1009.74
2018-06-14T13:25:12.997Z,1009.7
2018-06-14T13:26:22.452Z,1009.76
2018-06-14T13:27:32.415Z,1009.7
2018-06-14T13:28:42.123Z,1009.71
2018-06-14T13:29:51.811Z,1009.69
2018-06-14T13:31:01.620Z,1009.71
2018-06-14T13:32:11.565Z,1009.7
2018-06-14T13:33:21.051Z,1009.72
2018-06-14T13:34:29.982Z,1009.75
2018-06-14T13:35:38.884Z,1009.74
2018-06-14T13:36:48.307Z,1009.76
2018-06-14T13:37:57.989Z,1009.75
2018-06-14T13:39:07.162Z,1009.78
2018-06-14T13:40:16.324Z,1009.73
2018-06-14T13:41:25.772Z,1009.7
2018-06-14T13:42:35.201Z,1009.7
2018-06-14T13:43:44.749Z,1009.64
2018-06-14T13:44:53.924Z,1009.64
2018-06-14T13:46:03.625Z,1009.68
2018-06-14T13:47:13.309Z,1009.69
2018-06-14T13:48:22.479Z,1009.65
2018-06-14T13:49:32.206Z,1009.64
2018-06-14T13:50:42.099Z,1009.65
2018-06-14T13:51:51.580Z,1009.62
2018-06-14T13:53:01.269Z,1009.65
2018-06-14T13:54:10.701Z,1009.69
2018-06-14T13:55:20.128Z,1009.66
2018-06-14T13:56:30.320Z,1009.66
2018-06-14T13:57:40.061Z,1009.66
2018-06-14T13:58:50.189Z,1009.68
2018-06-14T13:59:59.631Z,1009.7
2018-06-14T14:01:09.181Z,1009.71
2018-06-14T14:02:19.507Z,1009.71
2018-06-14T14:03:28.963Z,1009.73